Time;durP1;ratioP1;P1;durP2;ratioP2;P2;SDS_P1;SDS_P2;PMS_P1;PMS_P2;Temp;Humidity;BMP_temperature;BMP_pressure;BME280_temperature;BME280_humidity;BME280_pressure;Samples;Min_cycle;Max_cycle;Signal;HPM_P1;HPM_P2
2023/12/16 00:02:03;;;;;;;0.57;0.57;;;2.00;99.90;;;;;;5032226;28;20186;-57
2023/12/16 00:04:29;;;;;;;2.47;1.50;;;1.90;99.90;;;;;;5032488;28;20271;-57
2023/12/16 00:06:54;;;;;;;0.30;0.30;;;1.90;99.90;;;;;;5032529;28;20425;-58
2023/12/16 00:09:20;;;;;;;0.67;0.57;;;1.90;99.90;;;;;;5032501;28;20201;-57
2023/12/16 00:11:46;;;;;;;0.40;0.40;;;2.00;99.90;;;;;;5032515;28;20188;-57
2023/12/16 00:14:11;;;;;;;0.30;0.30;;;2.00;99.90;;;;;;5032725;28;20206;-58
2023/12/16 00:16:45;;;;;;;0.60;0.50;;;2.00;99.90;;;;;;5032166;28;20656;-57
2023/12/16 00:19:11;;;;;;;0.73;0.73;;;2.10;99.90;;;;;;5032567;28;20170;-58
2023/12/16 00:21:37;;;;;;;0.40;0.40;;;2.00;99.90;;;;;;5031919;28;20174;-57
2023/12/16 00:24:09;;;;;;;0.40;0.40;;;2.00;99.90;;;;;;5031485;28;20420;-57
2023/12/16 00:26:34;;;;;;;0.35;0.35;;;2.10;99.90;;;;;;5032218;28;20575;-56
2023/12/16 00:29:00;;;;;;;0.30;0.30;;;2.10;99.90;;;;;;5032098;28;20196;-57
2023/12/16 00:31:26;;;;;;;0.30;0.30;;;2.10;99.90;;;;;;5031703;28;20184;-57
2023/12/16 00:33:51;;;;;;;1.80;1.73;;;2.10;99.90;;;;;;5032199;28;20535;-57
2023/12/16 00:36:17;;;;;;;1.47;0.77;;;2.10;99.90;;;;;;5031832;28;20294;-57
2023/12/16 00:38:43;;;;;;;0.30;0.30;;;1.90;99.90;;;;;;5032138;28;20225;-57
2023/12/16 00:41:09;;;;;;;0.40;0.40;;;1.80;99.90;;;;;;5031608;28;20669;-57
2023/12/16 00:43:34;;;;;;;0.40;0.40;;;1.80;99.90;;;;;;5031941;28;20264;-57
2023/12/16 00:46:00;;;;;;;0.40;0.40;;;1.90;99.90;;;;;;5031674;28;20514;-57
2023/12/16 00:48:26;;;;;;;0.40;0.40;;;1.90;99.90;;;;;;5031888;28;20769;-58
2023/12/16 00:50:51;;;;;;;0.60;0.60;;;1.80;99.90;;;;;;5031528;28;20173;-58
2023/12/16 00:53:17;;;;;;;0.60;0.60;;;1.90;99.90;;;;;;5031791;28;20187;-57
2023/12/16 00:55:43;;;;;;;1.00;0.50;;;1.90;99.90;;;;;;5033282;28;20217;-57
2023/12/16 00:58:08;;;;;;;0.30;0.30;;;2.00;99.90;;;;;;5031728;28;20711;-57
2023/12/16 01:00:34;;;;;;;0.30;0.30;;;2.00;99.90;;;;;;5031318;28;20693;-58
2023/12/16 01:03:00;;;;;;;0.30;0.30;;;2.00;99.90;;;;;;5031718;28;20898;-57
2023/12/16 01:05:26;;;;;;;0.30;0.30;;;2.00;99.90;;;;;;5031509;28;20188;-57
2023/12/16 01:07:52;;;;;;;1.57;1.00;;;1.90;99.90;;;;;;5031729;28;20184;-56
2023/12/16 01:10:18;;;;;;;0.50;0.50;;;1.90;99.90;;;;;;5031410;28;20407;-57
2023/12/16 01:12:43;;;;;;;0.50;0.50;;;1.70;99.90;;;;;;5031186;28;20530;-57
2023/12/16 01:15:09;;;;;;;0.30;0.30;;;1.80;99.90;;;;;;5048981;28;20435;-56
2023/12/16 01:17:35;;;;;;;0.40;0.40;;;1.70;99.90;;;;;;5051594;28;20208;-55
2023/12/16 01:20:00;;;;;;;0.30;0.30;;;1.70;99.90;;;;;;5051394;28;20647;-56
2023/12/16 01:22:26;;;;;;;0.40;0.40;;;1.80;99.90;;;;;;5051174;28;20169;-57
2023/12/16 01:24:52;;;;;;;0.40;0.40;;;1.80;99.90;;;;;;5051288;28;20189;-57
2023/12/16 01:27:17;;;;;;;0.40;0.40;;;1.90;99.90;;;;;;5051279;28;20235;-57
2023/12/16 01:29:43;;;;;;;0.40;0.40;;;1.80;99.90;;;;;;5051241;28;20414;-56
2023/12/16 01:32:10;;;;;;;0.30;0.30;;;1.70;99.90;;;;;;5051089;28;20173;-56
2023/12/16 01:34:35;;;;;;;0.45;0.45;;;1.60;99.90;;;;;;5051897;28;20223;-57
2023/12/16 01:37:01;;;;;;;0.30;0.30;;;1.60;99.90;;;;;;5055237;28;20284;-57
2023/12/16 01:39:26;;;;;;;0.30;0.30;;;1.70;99.90;;;;;;5055293;28;20173;-57
2023/12/16 01:41:52;;;;;;;0.40;0.40;;;1.70;99.90;;;;;;5054850;28;20168;-57
2023/12/16 01:44:17;;;;;;;0.30;0.30;;;1.60;99.90;;;;;;5055000;28;20272;-58
2023/12/16 01:46:44;;;;;;;0.30;0.30;;;1.50;99.90;;;;;;5055086;28;20218;-55
2023/12/16 01:49:09;;;;;;;0.30;0.30;;;1.60;99.90;;;;;;5055019;28;20189;-57
2023/12/16 01:51:36;;;;;;;0.30;0.30;;;1.60;99.90;;;;;;5055049;28;20226;-57
2023/12/16 01:54:01;;;;;;;0.30;0.30;;;1.60;99.90;;;;;;5054875;28;20909;-57
2023/12/16 01:56:29;;;;;;;0.40;0.40;;;1.50;99.90;;;;;;5054956;28;20269;-57
2023/12/16 01:58:55;;;;;;;0.30;0.30;;;1.60;99.90;;;;;;5054793;28;20407;-57
2023/12/16 02:01:21;;;;;;;0.30;0.30;;;1.60;99.90;;;;;;5054521;28;20184;-57
2023/12/16 02:03:47;;;;;;;0.40;0.40;;;1.60;99.90;;;;;;5054824;28;20174;-57
2023/12/16 02:06:14;;;;;;;0.40;0.40;;;1.60;99.90;;;;;;5054653;28;20209;-57
2023/12/16 02:08:40;;;;;;;0.40;0.40;;;1.50;99.90;;;;;;5054771;28;20210;-57
2023/12/16 02:11:10;;;;;;;0.30;0.30;;;1.60;99.90;;;;;;5054366;28;20180;-55
2023/12/16 02:13:36;;;;;;;0.40;0.40;;;1.60;99.90;;;;;;5054643;28;20402;-56
2023/12/16 02:16:02;;;;;;;2.15;2.05;;;1.60;99.90;;;;;;5054496;28;20246;-57
2023/12/16 02:18:27;;;;;;;0.30;0.30;;;1.60;99.90;;;;;;5055760;28;20177;-56
2023/12/16 02:20:53;;;;;;;0.30;0.30;;;1.60;99.90;;;;;;5054159;28;20410;-56
2023/12/16 02:23:19;;;;;;;1.00;0.50;;;1.60;99.90;;;;;;5054471;28;20172;-57
2023/12/16 02:25:45;;;;;;;0.30;0.30;;;1.60;99.90;;;;;;5054217;28;20203;-58
2023/12/16 02:28:11;;;;;;;0.30;0.30;;;1.60;99.90;;;;;;5054615;28;20177;-57
2023/12/16 02:30:37;;;;;;;1.07;0.40;;;1.60;99.90;;;;;;5053934;28;20551;-58
2023/12/16 02:33:03;;;;;;;0.50;0.50;;;1.50;99.90;;;;;;5054233;28;20908;-56
2023/12/16 02:35:28;;;;;;;0.30;0.30;;;1.50;99.90;;;;;;5053942;28;20234;-57
2023/12/16 02:37:54;;;;;;;0.40;0.40;;;1.50;99.90;;;;;;5054184;28;20166;-57
2023/12/16 02:40:19;;;;;;;0.50;0.50;;;1.50;99.90;;;;;;5053886;28;20177;-56
2023/12/16 02:42:45;;;;;;;0.30;0.30;;;1.50;99.90;;;;;;5053983;28;20174;-57
2023/12/16 02:45:11;;;;;;;0.40;0.40;;;1.50;99.90;;;;;;5054012;28;20616;-57
2023/12/16 02:47:37;;;;;;;0.43;0.43;;;1.60;99.90;;;;;;5053329;28;20232;-56
2023/12/16 02:50:03;;;;;;;0.37;0.37;;;1.70;99.90;;;;;;5054002;28;20181;-58
2023/12/16 02:52:30;;;;;;;0.40;0.40;;;1.80;99.90;;;;;;5053704;28;20185;-57
2023/12/16 02:54:55;;;;;;;0.40;0.40;;;1.80;99.90;;;;;;5053675;28;20291;-58
2023/12/16 02:57:21;;;;;;;0.40;0.40;;;1.60;99.90;;;;;;5053798;28;20640;-56
2023/12/16 02:59:47;;;;;;;0.30;0.30;;;1.60;99.90;;;;;;5053953;28;20262;-57
2023/12/16 03:02:12;;;;;;;0.30;0.30;;;1.60;99.90;;;;;;5053602;28;20174;-57
2023/12/16 03:04:38;;;;;;;0.40;0.40;;;1.50;99.90;;;;;;5053389;28;20280;-55
2023/12/16 03:07:04;;;;;;;0.30;0.30;;;1.50;99.90;;;;;;5053368;28;20177;-57
2023/12/16 03:09:29;;;;;;;0.50;0.50;;;1.40;99.90;;;;;;5053211;28;20240;-57
2023/12/16 03:11:55;;;;;;;3.13;0.60;;;1.30;99.90;;;;;;5053290;28;20841;-57
2023/12/16 03:14:21;;;;;;;0.53;0.53;;;1.30;99.90;;;;;;5053476;28;20250;-58
2023/12/16 03:16:47;;;;;;;1.73;1.73;;;1.40;99.90;;;;;;5053469;28;20206;-58
2023/12/16 03:19:12;;;;;;;0.30;0.30;;;1.50;99.90;;;;;;5053414;28;20260;-57
2023/12/16 03:21:39;;;;;;;0.40;0.40;;;1.50;99.90;;;;;;5053238;28;20261;-58
2023/12/16 03:24:05;;;;;;;0.30;0.30;;;1.60;99.90;;;;;;5053180;28;20276;-57
2023/12/16 03:26:30;;;;;;;0.73;0.73;;;1.70;99.90;;;;;;5053188;28;20271;-57
2023/12/16 03:28:56;;;;;;;0.33;0.33;;;1.70;99.90;;;;;;5053190;28;20407;-57
2023/12/16 03:31:22;;;;;;;0.43;0.43;;;1.70;99.90;;;;;;5053112;28;20631;-57
2023/12/16 03:33:48;;;;;;;0.40;0.40;;;1.50;99.90;;;;;;5053106;28;20180;-57
2023/12/16 03:36:13;;;;;;;0.30;0.30;;;1.40;99.90;;;;;;5058950;22;20488;-57
2023/12/16 03:38:42;;;;;;;0.40;0.40;;;1.40;99.90;;;;;;5029220;28;20174;-57
2023/12/16 03:41:08;;;;;;;0.75;0.75;;;1.40;99.90;;;;;;5032693;28;20180;-57
2023/12/16 03:43:33;;;;;;;0.30;0.30;;;1.30;99.90;;;;;;5033086;28;20178;-57
2023/12/16 03:45:59;;;;;;;0.40;0.40;;;1.20;99.90;;;;;;5032784;28;20196;-56
2023/12/16 03:48:25;;;;;;;0.50;0.50;;;1.20;99.90;;;;;;5032925;28;20179;-57
2023/12/16 03:50:50;;;;;;;0.40;0.40;;;1.20;99.90;;;;;;5032568;28;20639;-56
2023/12/16 03:53:16;;;;;;;0.37;0.37;;;1.20;99.90;;;;;;5032722;28;20170;-57
2023/12/16 03:55:41;;;;;;;0.30;0.30;;;1.20;99.90;;;;;;5032698;28;20201;-57
2023/12/16 03:58:07;;;;;;;0.40;0.40;;;1.20;99.90;;;;;;5031806;28;20170;-57
2023/12/16 04:00:33;;;;;;;0.50;0.40;;;1.20;99.90;;;;;;5032507;28;20215;-55
2023/12/16 04:03:00;;;;;;;0.30;0.30;;;1.20;99.90;;;;;;5032724;28;20174;-55
2023/12/16 04:05:25;;;;;;;0.40;0.40;;;1.20;99.90;;;;;;5032532;28;20605;-57
2023/12/16 04:07:51;;;;;;;0.37;0.37;;;1.20;99.90;;;;;;5032545;28;20173;-55
2023/12/16 04:10:16;;;;;;;1.33;0.47;;;1.30;99.90;;;;;;5032305;28;20170;-56
2023/12/16 04:12:42;;;;;;;0.40;0.40;;;1.30;99.90;;;;;;5032420;28;20173;-55
2023/12/16 04:15:10;;;;;;;2.00;0.70;;;1.50;99.90;;;;;;5032273;28;20686;-56
2023/12/16 04:17:36;;;;;;;0.60;0.60;;;1.50;99.90;;;;;;5032255;28;20292;-57
2023/12/16 04:20:02;;;;;;;0.40;0.40;;;1.50;99.90;;;;;;5032355;28;20204;-57
2023/12/16 04:22:28;;;;;;;0.30;0.30;;;1.50;99.90;;;;;;5032128;28;20177;-57
2023/12/16 04:24:57;;;;;;;0.40;0.40;;;1.40;99.90;;;;;;5032232;28;20560;-57
2023/12/16 04:27:24;;;;;;;0.60;0.60;;;1.50;99.90;;;;;;5032202;28;20262;-57
2023/12/16 04:29:50;;;;;;;0.40;0.40;;;1.60;99.90;;;;;;5032093;28;20185;-57
2023/12/16 04:32:15;;;;;;;0.30;0.30;;;1.50;99.90;;;;;;5031882;28;20170;-57
2023/12/16 04:34:41;;;;;;;0.30;0.30;;;1.50;99.90;;;;;;5031920;28;20201;-56
2023/12/16 04:37:07;;;;;;;0.30;0.30;;;1.50;99.90;;;;;;5032005;28;20694;-55
2023/12/16 04:39:32;;;;;;;0.30;0.30;;;1.40;99.90;;;;;;5032282;28;20646;-54
2023/12/16 04:41:58;;;;;;;0.30;0.30;;;1.50;99.90;;;;;;5031689;28;20174;-54
2023/12/16 04:44:23;;;;;;;1.07;1.07;;;1.50;99.90;;;;;;5031873;28;20172;-54
2023/12/16 04:46:49;;;;;;;0.30;0.30;;;1.50;99.90;;;;;;5032040;28;20169;-56
2023/12/16 04:49:15;;;;;;;0.33;0.33;;;1.40;99.90;;;;;;5031495;28;20184;-57
2023/12/16 04:51:40;;;;;;;0.40;0.40;;;1.40;99.90;;;;;;5031623;28;20180;-57
2023/12/16 04:54:06;;;;;;;0.30;0.30;;;1.30;99.90;;;;;;5031908;28;20256;-53
2023/12/16 04:56:31;;;;;;;0.30;0.30;;;1.20;99.90;;;;;;5031801;28;20248;-57
2023/12/16 04:58:57;;;;;;;0.40;0.40;;;1.20;99.90;;;;;;5031755;28;20165;-57
2023/12/16 05:01:23;;;;;;;0.30;0.30;;;1.10;99.90;;;;;;5031490;28;20165;-56
2023/12/16 05:03:49;;;;;;;0.40;0.40;;;1.00;99.90;;;;;;5031818;28;20172;-57
2023/12/16 05:06:14;;;;;;;0.60;0.57;;;1.10;99.90;;;;;;5013852;28;20206;-57
2023/12/16 05:08:40;;;;;;;0.40;0.40;;;1.10;99.90;;;;;;5031820;28;20446;-56
2023/12/16 05:11:05;;;;;;;0.50;0.50;;;1.00;99.90;;;;;;5031148;28;20256;-57
2023/12/16 05:13:31;;;;;;;0.30;0.30;;;1.10;99.90;;;;;;5031757;28;20646;-57
2023/12/16 05:15:57;;;;;;;0.33;0.33;;;1.10;99.90;;;;;;5031453;28;20216;-57
2023/12/16 05:18:23;;;;;;;0.90;0.90;;;1.10;99.90;;;;;;5031741;28;20261;-57
2023/12/16 05:20:50;;;;;;;0.40;0.40;;;1.20;99.90;;;;;;5031281;28;20195;-57
2023/12/16 05:23:16;;;;;;;0.32;0.32;;;1.30;99.90;;;;;;5031406;28;20255;-57
2023/12/16 05:25:42;;;;;;;0.40;0.40;;;1.40;99.90;;;;;;5031485;28;20292;-57
2023/12/16 05:28:07;;;;;;;0.30;0.30;;;1.30;99.90;;;;;;5031512;28;20598;-57
2023/12/16 05:30:33;;;;;;;0.40;0.40;;;1.40;99.90;;;;;;5031093;28;20768;-57
2023/12/16 05:32:59;;;;;;;0.30;0.30;;;1.30;99.90;;;;;;5031524;28;20417;-57
2023/12/16 05:35:24;;;;;;;0.40;0.40;;;1.30;99.90;;;;;;5031345;28;20444;-57
2023/12/16 05:37:50;;;;;;;0.77;0.77;;;1.40;99.90;;;;;;5031347;28;20185;-57
2023/12/16 05:40:16;;;;;;;0.30;0.30;;;1.40;99.90;;;;;;5031253;28;20245;-57
2023/12/16 05:42:42;;;;;;;0.37;0.37;;;1.40;99.90;;;;;;5031137;28;20179;-57
2023/12/16 05:45:08;;;;;;;0.40;0.40;;;1.40;99.90;;;;;;5031359;28;20179;-57
2023/12/16 05:47:34;;;;;;;0.30;0.30;;;1.40;99.90;;;;;;5031380;28;20192;-57
2023/12/16 05:49:59;;;;;;;0.43;0.43;;;1.50;99.90;;;;;;5031319;28;20212;-55
2023/12/16 05:52:25;;;;;;;0.40;0.40;;;1.50;99.90;;;;;;5031395;28;20233;-57
2023/12/16 05:54:51;;;;;;;0.53;0.53;;;1.60;99.90;;;;;;5031166;28;20557;-57
2023/12/16 05:57:16;;;;;;;0.50;0.50;;;1.60;99.90;;;;;;5031058;28;20272;-57
2023/12/16 05:59:42;;;;;;;0.40;0.40;;;1.60;99.90;;;;;;5031145;28;20251;-56
2023/12/16 06:02:08;;;;;;;0.40;0.40;;;1.60;99.90;;;;;;5031097;28;20632;-57
2023/12/16 06:04:34;;;;;;;0.40;0.40;;;1.70;99.90;;;;;;5031161;28;20185;-57
2023/12/16 06:07:00;;;;;;;0.30;0.30;;;1.60;99.90;;;;;;5031027;28;20170;-57
2023/12/16 06:09:25;;;;;;;0.40;0.40;;;1.50;99.90;;;;;;5031106;28;20658;-55
2023/12/16 06:11:51;;;;;;;0.40;0.40;;;1.40;99.90;;;;;;5030657;28;20174;-57
2023/12/16 06:14:16;;;;;;;0.50;0.50;;;1.50;99.90;;;;;;5031040;28;20179;-57
2023/12/16 06:16:42;;;;;;;0.30;0.30;;;1.60;99.90;;;;;;5031000;28;20213;-57
2023/12/16 06:19:08;;;;;;;0.30;0.30;;;1.60;99.90;;;;;;5031009;28;20645;-54
2023/12/16 06:21:33;;;;;;;0.40;0.40;;;1.60;99.90;;;;;;5031212;28;20172;-56
2023/12/16 06:24:00;;;;;;;0.50;0.50;;;1.60;99.90;;;;;;5034484;28;20196;-56
2023/12/16 06:26:25;;;;;;;0.40;0.40;;;1.50;99.90;;;;;;5034266;28;20571;-55
2023/12/16 06:28:51;;;;;;;0.30;0.30;;;1.50;99.90;;;;;;5034602;28;20186;-56
2023/12/16 06:31:17;;;;;;;0.40;0.40;;;1.50;99.90;;;;;;5034146;28;20177;-56
2023/12/16 06:33:43;;;;;;;0.75;0.50;;;1.40;99.90;;;;;;5034391;28;20178;-57
2023/12/16 06:36:09;;;;;;;0.30;0.30;;;1.50;99.90;;;;;;5033967;28;20227;-55
2023/12/16 06:38:35;;;;;;;0.30;0.30;;;1.30;99.90;;;;;;5034581;28;20913;-57
2023/12/16 06:41:01;;;;;;;0.33;0.33;;;1.30;99.90;;;;;;5033831;28;20173;-56
2023/12/16 06:43:26;;;;;;;1.02;1.02;;;1.40;99.90;;;;;;5034505;28;20180;-56
2023/12/16 06:45:53;;;;;;;0.30;0.30;;;1.50;99.90;;;;;;5034181;28;20556;-56
2023/12/16 06:48:19;;;;;;;0.30;0.30;;;1.50;99.90;;;;;;5034045;28;20181;-56
2023/12/16 06:50:44;;;;;;;0.30;0.30;;;1.50;99.90;;;;;;5033665;28;20196;-56
2023/12/16 06:53:11;;;;;;;0.50;0.50;;;1.60;99.90;;;;;;5034062;28;20207;-56
2023/12/16 06:55:37;;;;;;;0.35;0.35;;;1.60;99.90;;;;;;5033639;28;20213;-56
2023/12/16 06:58:04;;;;;;;0.40;0.40;;;1.60;99.90;;;;;;5034059;28;20168;-56
2023/12/16 07:00:30;;;;;;;0.30;0.30;;;1.50;99.90;;;;;;5033587;28;20166;-55
2023/12/16 07:02:55;;;;;;;0.60;0.60;;;1.50;99.90;;;;;;5033819;28;20199;-56
2023/12/16 07:05:21;;;;;;;0.30;0.30;;;1.40;99.90;;;;;;5033699;28;20188;-57
2023/12/16 07:07:47;;;;;;;0.30;0.30;;;1.40;99.90;;;;;;5033942;28;20198;-56
2023/12/16 07:10:12;;;;;;;0.30;0.30;;;1.30;99.90;;;;;;5033510;28;20849;-57
2023/12/16 07:12:38;;;;;;;0.50;0.50;;;1.30;99.90;;;;;;5033519;28;20173;-56
2023/12/16 07:15:04;;;;;;;0.30;0.30;;;1.20;99.90;;;;;;5033663;28;20211;-57
2023/12/16 07:17:30;;;;;;;0.40;0.40;;;1.20;99.90;;;;;;5033820;28;20622;-58
2023/12/16 07:19:56;;;;;;;0.60;0.60;;;1.10;99.90;;;;;;5033323;28;20272;-57
2023/12/16 07:22:21;;;;;;;0.30;0.30;;;1.10;99.90;;;;;;5033237;28;20413;-58
2023/12/16 07:24:47;;;;;;;0.40;0.40;;;1.10;99.90;;;;;;5015509;28;20197;-58
2023/12/16 07:27:13;;;;;;;0.40;0.40;;;1.10;99.90;;;;;;5033122;28;20178;-58
2023/12/16 07:29:38;;;;;;;0.30;0.30;;;1.20;99.90;;;;;;5033414;28;20213;-58
2023/12/16 07:32:04;;;;;;;0.40;0.40;;;1.20;99.90;;;;;;5032844;28;20169;-58
2023/12/16 07:34:30;;;;;;;0.67;0.67;;;1.30;99.90;;;;;;5032753;28;20540;-58
2023/12/16 07:36:56;;;;;;;0.40;0.40;;;1.40;99.90;;;;;;5033124;28;20497;-58
2023/12/16 07:39:22;;;;;;;0.50;0.50;;;1.40;99.90;;;;;;5032872;28;20224;-58
2023/12/16 07:41:48;;;;;;;0.40;0.40;;;1.40;99.90;;;;;;5032986;28;20197;-58
2023/12/16 07:44:14;;;;;;;0.37;0.37;;;1.40;99.90;;;;;;5032987;28;20697;-58
2023/12/16 07:46:40;;;;;;;0.30;0.30;;;1.40;99.90;;;;;;5015081;28;20732;-58
2023/12/16 07:49:06;;;;;;;0.30;0.30;;;1.40;99.90;;;;;;5032958;28;20571;-58
2023/12/16 07:51:31;;;;;;;0.30;0.30;;;1.40;99.90;;;;;;5032565;28;20266;-58
2023/12/16 07:53:57;;;;;;;0.50;0.50;;;1.40;99.90;;;;;;5032483;28;20416;-58
2023/12/16 07:56:26;;;;;;;0.30;0.30;;;1.30;99.90;;;;;;5032833;28;20213;-58
2023/12/16 07:58:52;;;;;;;1.63;0.57;;;1.20;99.90;;;;;;5032478;28;20168;-58
2023/12/16 08:01:19;;;;;;;0.70;0.70;;;1.20;99.90;;;;;;5032408;28;20615;-58
2023/12/16 08:03:45;;;;;;;0.30;0.30;;;1.20;99.90;;;;;;5032757;28;20181;-55
2023/12/16 08:06:13;;;;;;;0.40;0.40;;;1.10;99.90;;;;;;5032577;28;20203;-58
2023/12/16 08:08:40;;;;;;;0.40;0.40;;;1.20;99.90;;;;;;5032428;28;20175;-58
2023/12/16 08:11:07;;;;;;;0.40;0.40;;;1.40;99.90;;;;;;5032028;28;20658;-58
2023/12/16 08:13:34;;;;;;;0.43;0.43;;;1.70;99.90;;;;;;5032498;28;20178;-59
2023/12/16 08:16:00;;;;;;;0.50;0.50;;;2.60;99.90;;;;;;5031904;28;20595;-60
2023/12/16 08:18:27;;;;;;;0.80;0.80;;;3.70;99.90;;;;;;5032309;28;20671;-60
2023/12/16 08:20:53;;;;;;;0.55;0.55;;;4.60;99.90;;;;;;5031726;28;20584;-59
2023/12/16 08:23:19;;;;;;;0.98;0.95;;;5.30;99.90;;;;;;5031782;28;20169;-58
2023/12/16 08:25:45;;;;;;;3.22;2.60;;;5.90;99.90;;;;;;5032414;28;20202;-59
2023/12/16 08:28:11;;;;;;;4.40;4.13;;;6.40;99.90;;;;;;5032410;28;20634;-58
2023/12/16 08:30:36;;;;;;;1.13;1.03;;;6.80;99.90;;;;;;5031923;28;20162;-59
2023/12/16 08:33:02;;;;;;;1.43;1.23;;;7.10;99.90;;;;;;5032150;28;20179;-59
2023/12/16 08:35:28;;;;;;;1.43;1.33;;;7.40;99.90;;;;;;5032094;28;20198;-62
2023/12/16 08:37:57;;;;;;;1.37;0.73;;;7.80;99.90;;;;;;5032101;28;20163;-60
2023/12/16 08:40:24;;;;;;;1.60;1.50;;;8.00;99.90;;;;;;5031888;28;20167;-59
2023/12/16 08:42:50;;;;;;;3.30;1.48;;;8.10;99.90;;;;;;5031923;28;20175;-59
2023/12/16 08:45:16;;;;;;;3.50;1.90;;;8.40;99.90;;;;;;5031341;28;20613;-59
2023/12/16 08:47:41;;;;;;;7.40;2.60;;;8.90;99.90;;;;;;5031937;28;20717;-59
2023/12/16 08:50:08;;;;;;;1.60;1.50;;;9.30;99.10;;;;;;5031427;28;20504;-59
2023/12/16 08:52:34;;;;;;;2.20;1.90;;;9.30;93.40;;;;;;5031741;28;20445;-60
2023/12/16 08:55:01;;;;;;;0.67;0.67;;;9.50;94.00;;;;;;5031727;28;20425;-60
2023/12/16 08:57:30;;;;;;;1.13;1.13;;;9.70;94.90;;;;;;5031247;28;20497;-59
2023/12/16 08:59:55;;;;;;;7.00;2.10;;;10.20;93.40;;;;;;5031465;28;20769;-60
2023/12/16 09:02:22;;;;;;;2.10;1.40;;;10.70;93.30;;;;;;5031473;28;20414;-60
2023/12/16 09:04:48;;;;;;;1.33;1.27;;;11.30;92.50;;;;;;5031428;28;20204;-59
2023/12/16 09:07:13;;;;;;;3.13;2.80;;;11.80;91.40;;;;;;5031757;28;20417;-60
2023/12/16 09:09:39;;;;;;;1.73;1.63;;;12.30;86.60;;;;;;5031648;28;20419;-59
2023/12/16 09:12:06;;;;;;;6.43;3.40;;;12.40;86.90;;;;;;5031214;28;20174;-59
2023/12/16 09:14:32;;;;;;;4.00;3.07;;;12.60;82.70;;;;;;5031625;28;20233;-59
2023/12/16 09:16:58;;;;;;;6.70;3.50;;;12.90;80.80;;;;;;5031988;28;20441;-59
2023/12/16 09:19:23;;;;;;;10.33;4.53;;;13.30;77.60;;;;;;5031616;28;20426;-59
2023/12/16 09:21:49;;;;;;;4.07;3.70;;;13.60;76.20;;;;;;5031475;28;20259;-59
2023/12/16 09:24:15;;;;;;;1.30;1.03;;;14.00;75.30;;;;;;5031376;28;20401;-59
2023/12/16 09:26:41;;;;;;;0.70;0.70;;;14.50;72.50;;;;;;5031617;28;20225;-61
2023/12/16 09:29:07;;;;;;;3.60;2.40;;;14.80;72.30;;;;;;5031512;28;20690;-56
2023/12/16 09:31:33;;;;;;;2.70;1.43;;;15.30;70.50;;;;;;5031651;28;20167;-56
2023/12/16 09:33:59;;;;;;;4.83;4.33;;;15.80;69.50;;;;;;5031006;28;20417;-54
2023/12/16 09:36:26;;;;;;;11.30;4.63;;;16.20;66.70;;;;;;5046324;22;20521;-55
2023/12/16 09:38:54;;;;;;;3.30;3.00;;;16.50;64.20;;;;;;5050653;28;20227;-54
2023/12/16 09:41:22;;;;;;;5.57;3.90;;;16.90;62.20;;;;;;5050998;28;20411;-56
2023/12/16 09:43:53;;;;;;;1.73;1.50;;;17.40;60.30;;;;;;5051289;28;20396;-55
2023/12/16 09:46:21;;;;;;;2.20;2.00;;;17.80;58.10;;;;;;5051276;28;20399;-55
2023/12/16 09:48:47;;;;;;;2.87;2.57;;;18.00;57.00;;;;;;5051519;28;20862;-55
2023/12/16 09:51:13;;;;;;;2.03;1.83;;;18.20;57.10;;;;;;5050915;28;20421;-55
2023/12/16 09:53:39;;;;;;;4.17;2.90;;;18.40;55.80;;;;;;5051279;28;20375;-55
2023/12/16 09:56:05;;;;;;;3.60;2.47;;;18.70;55.90;;;;;;5051884;28;20476;-55
2023/12/16 09:58:33;;;;;;;5.80;5.10;;;19.10;55.10;;;;;;5055196;28;20494;-56
2023/12/16 10:01:01;;;;;;;2.83;2.70;;;19.00;54.10;;;;;;5054519;28;20415;-57
2023/12/16 10:03:27;;;;;;;2.33;1.70;;;18.80;53.90;;;;;;5054961;28;20432;-55
2023/12/16 10:05:53;;;;;;;1.67;1.57;;;18.40;53.60;;;;;;5054493;28;20403;-55
2023/12/16 10:08:19;;;;;;;1.80;1.60;;;18.10;54.50;;;;;;5054782;28;20405;-55
2023/12/16 10:10:44;;;;;;;0.90;0.90;;;18.00;54.20;;;;;;5054390;28;20173;-55
2023/12/16 10:13:10;;;;;;;1.83;1.20;;;18.00;54.10;;;;;;5054810;28;20170;-55
2023/12/16 10:15:37;;;;;;;1.10;1.00;;;18.20;53.90;;;;;;5054562;28;20684;-54
2023/12/16 10:18:03;;;;;;;1.40;0.97;;;18.30;54.00;;;;;;5054731;28;20260;-55
2023/12/16 10:20:30;;;;;;;1.33;0.90;;;18.50;53.70;;;;;;5054325;28;20491;-55
2023/12/16 10:22:59;;;;;;;0.90;0.70;;;18.60;53.30;;;;;;5054525;28;20436;-55
2023/12/16 10:25:25;;;;;;;0.87;0.87;;;18.60;52.50;;;;;;5054294;28;20427;-55
2023/12/16 10:28:01;;;;;;;0.83;0.70;;;18.60;52.90;;;;;;5054478;28;20787;-55
2023/12/16 10:30:26;;;;;;;2.70;0.80;;;18.10;52.70;;;;;;5054093;28;20408;-55
2023/12/16 10:32:55;;;;;;;0.73;0.53;;;17.20;53.30;;;;;;5054145;28;20475;-55
2023/12/16 10:35:23;;;;;;;0.67;0.67;;;16.20;55.30;;;;;;5054053;28;20193;-55
2023/12/16 10:37:50;;;;;;;0.50;0.43;;;15.80;56.30;;;;;;5053851;28;20465;-55
2023/12/16 10:40:16;;;;;;;3.37;1.83;;;15.70;56.90;;;;;;5053846;28;20442;-55
2023/12/16 10:42:43;;;;;;;1.17;1.00;;;15.70;57.40;;;;;;5053768;28;20400;-55
2023/12/16 10:45:10;;;;;;;2.17;1.20;;;15.50;56.80;;;;;;5053620;28;20410;-55
2023/12/16 10:47:37;;;;;;;0.73;0.73;;;15.00;58.30;;;;;;5053763;28;20402;-55
2023/12/16 10:50:03;;;;;;;0.70;0.70;;;14.30;59.00;;;;;;5053634;28;20414;-55
2023/12/16 10:52:39;;;;;;;0.57;0.57;;;13.80;60.10;;;;;;5053385;28;20412;-55
2023/12/16 10:55:06;;;;;;;0.67;0.50;;;13.40;61.90;;;;;;5053942;28;20409;-55
2023/12/16 10:58:09;;;;;;;0.80;0.80;;;12.90;63.60;;;;;;5054041;28;20456;-55
2023/12/16 11:00:37;;;;;;;0.37;0.37;;;12.00;65.30;;;;;;5053539;28;20411;-57
2023/12/16 11:03:22;;;;;;;0.60;0.60;;;11.40;68.30;;;;;;5053770;28;20412;-57
2023/12/16 11:05:58;;;;;;;0.70;0.50;;;10.80;70.50;;;;;;5053766;28;20443;-58
2023/12/16 11:08:27;;;;;;;2.30;0.63;;;10.40;72.30;;;;;;5052436;28;20906;-54
2023/12/16 11:10:54;;;;;;;0.80;0.47;;;9.90;75.10;;;;;;5053381;28;20792;-55
2023/12/16 11:13:22;;;;;;;0.40;0.40;;;9.50;76.70;;;;;;5053517;28;20493;-57
2023/12/16 11:16:00;;;;;;;0.73;0.73;;;9.20;79.10;;;;;;5053628;28;20420;-57
2023/12/16 11:18:28;;;;;;;0.40;0.40;;;8.80;81.20;;;;;;5053560;28;20256;-57
2023/12/16 11:20:56;;;;;;;0.60;0.60;;;8.50;83.00;;;;;;5053317;28;20173;-57
2023/12/16 11:23:24;;;;;;;0.38;0.38;;;8.20;85.30;;;;;;5053515;28;20190;-57
2023/12/16 11:25:50;;;;;;;0.95;0.55;;;8.10;87.50;;;;;;5053189;28;20248;-57
2023/12/16 11:28:17;;;;;;;0.43;0.40;;;7.80;89.70;;;;;;5053400;28;20179;-57
2023/12/16 11:30:44;;;;;;;0.50;0.50;;;7.70;90.80;;;;;;5052751;28;20405;-57
2023/12/16 11:33:10;;;;;;;0.40;0.40;;;7.60;91.20;;;;;;5053219;28;20696;-54
2023/12/16 11:35:42;;;;;;;1.07;0.63;;;7.50;91.60;;;;;;5052963;28;20297;-57
2023/12/16 11:38:08;;;;;;;0.98;0.40;;;7.40;92.10;;;;;;5051834;28;20499;-58
2023/12/16 11:40:49;;;;;;;0.73;0.73;;;7.20;92.40;;;;;;5052781;28;20170;-57
2023/12/16 11:43:15;;;;;;;0.60;0.40;;;7.00;92.90;;;;;;5053209;28;20174;-57
2023/12/16 11:45:45;;;;;;;0.40;0.40;;;6.80;93.40;;;;;;5052963;28;20216;-57
2023/12/16 11:48:14;;;;;;;0.95;0.50;;;6.60;94.00;;;;;;5053022;28;20170;-55
2023/12/16 11:50:41;;;;;;;0.63;0.50;;;6.40;94.60;;;;;;5052484;28;20178;-53
2023/12/16 11:53:12;;;;;;;0.40;0.40;;;6.30;95.40;;;;;;5051587;28;20174;-57
2023/12/16 11:55:39;;;;;;;0.63;0.50;;;6.10;95.70;;;;;;5052680;28;20726;-57
2023/12/16 11:58:05;;;;;;;0.50;0.47;;;5.90;96.00;;;;;;5052808;28;20172;-57
2023/12/16 12:00:31;;;;;;;1.50;0.50;;;5.90;96.60;;;;;;5052460;28;20188;-57
2023/12/16 12:03:00;;;;;;;0.40;0.40;;;5.60;97.10;;;;;;5052731;28;20550;-57
2023/12/16 12:05:27;;;;;;;0.50;0.50;;;5.50;97.50;;;;;;5052533;28;20519;-57
2023/12/16 12:07:54;;;;;;;0.47;0.47;;;5.50;97.90;;;;;;5052583;28;20688;-56
2023/12/16 12:10:19;;;;;;;0.40;0.40;;;5.50;98.30;;;;;;5052380;28;20214;-57
2023/12/16 12:12:45;;;;;;;0.40;0.40;;;5.40;98.00;;;;;;5052354;28;20212;-54
2023/12/16 12:15:11;;;;;;;0.43;0.43;;;5.40;98.40;;;;;;5052469;28;20178;-57
2023/12/16 12:17:37;;;;;;;0.30;0.30;;;5.40;98.40;;;;;;5052244;28;20379;-56
2023/12/16 12:20:04;;;;;;;0.40;0.40;;;5.30;98.90;;;;;;5051798;28;20178;-57
2023/12/16 12:22:31;;;;;;;1.88;1.13;;;5.20;98.60;;;;;;5051733;28;20168;-56
2023/12/16 12:24:57;;;;;;;1.35;0.45;;;5.10;98.80;;;;;;5052298;28;20179;-52
2023/12/16 12:27:23;;;;;;;0.40;0.40;;;5.10;99.00;;;;;;5052190;28;20745;-56
2023/12/16 12:30:04;;;;;;;0.40;0.40;;;5.10;99.20;;;;;;5052311;28;20216;-56
2023/12/16 12:32:31;;;;;;;0.40;0.40;;;5.10;99.10;;;;;;5051905;28;20185;-56
2023/12/16 12:35:05;;;;;;;0.40;0.40;;;5.10;99.20;;;;;;5052312;28;20201;-55
2023/12/16 12:37:44;;;;;;;0.30;0.30;;;5.00;99.60;;;;;;5051993;28;20206;-50
2023/12/16 12:40:12;;;;;;;0.30;0.30;;;5.00;99.60;;;;;;5051893;28;20602;-56
2023/12/16 12:42:55;;;;;;;0.40;0.40;;;4.90;99.60;;;;;;5051809;28;20265;-55
2023/12/16 12:45:24;;;;;;;0.40;0.40;;;4.90;99.90;;;;;;5051883;28;20183;-55
2023/12/16 12:47:50;;;;;;;0.40;0.40;;;4.80;99.90;;;;;;5051907;28;20186;-56
2023/12/16 12:50:20;;;;;;;0.40;0.40;;;4.80;99.90;;;;;;5051753;28;20261;-56
2023/12/16 12:52:46;;;;;;;0.30;0.30;;;4.80;99.90;;;;;;5051752;28;20179;-56